sensor_id;sensor_type;location;lat;lon;timestamp;P1;durP1;ratioP1;P2;durP2;ratioP2
38715;SDS011;24833;49.324;8.694;2023-04-16T00:01:05;4.85;;;3.70;;
38715;SDS011;24833;49.324;8.694;2023-04-16T00:03:32;4.30;;;3.75;;
38715;SDS011;24833;49.324;8.694;2023-04-16T00:06:00;5.43;;;4.50;;
38715;SDS011;24833;49.324;8.694;2023-04-16T00:08:27;4.40;;;3.65;;
38715;SDS011;24833;49.324;8.694;2023-04-16T00:10:54;4.18;;;3.78;;
38715;SDS011;24833;49.324;8.694;2023-04-16T00:13:21;4.45;;;4.05;;
38715;SDS011;24833;49.324;8.694;2023-04-16T00:15:48;4.60;;;4.07;;
38715;SDS011;24833;49.324;8.694;2023-04-16T00:18:15;4.00;;;3.60;;
38715;SDS011;24833;49.324;8.694;2023-04-16T00:20:42;4.45;;;4.03;;
38715;SDS011;24833;49.324;8.694;2023-04-16T00:23:09;4.75;;;3.78;;
38715;SDS011;24833;49.324;8.694;2023-04-16T00:25:36;6.07;;;4.55;;
38715;SDS011;24833;49.324;8.694;2023-04-16T00:28:03;4.80;;;4.15;;
38715;SDS011;24833;49.324;8.694;2023-04-16T00:30:31;4.70;;;4.07;;
38715;SDS011;24833;49.324;8.694;2023-04-16T00:32:58;5.97;;;4.70;;
38715;SDS011;24833;49.324;8.694;2023-04-16T00:35:25;6.15;;;4.10;;
38715;SDS011;24833;49.324;8.694;2023-04-16T00:37:52;4.93;;;3.97;;
38715;SDS011;24833;49.324;8.694;2023-04-16T00:40:19;4.90;;;4.25;;
38715;SDS011;24833;49.324;8.694;2023-04-16T00:42:46;6.80;;;3.83;;
38715;SDS011;24833;49.324;8.694;2023-04-16T00:45:13;5.20;;;4.28;;
38715;SDS011;24833;49.324;8.694;2023-04-16T00:47:40;5.00;;;4.05;;
38715;SDS011;24833;49.324;8.694;2023-04-16T00:50:09;5.28;;;4.45;;
38715;SDS011;24833;49.324;8.694;2023-04-16T00:52:37;5.55;;;4.20;;
38715;SDS011;24833;49.324;8.694;2023-04-16T00:55:05;5.53;;;4.00;;
38715;SDS011;24833;49.324;8.694;2023-04-16T00:57:33;5.95;;;4.30;;
38715;SDS011;24833;49.324;8.694;2023-04-16T01:00:00;5.32;;;4.30;;
38715;SDS011;24833;49.324;8.694;2023-04-16T01:02:28;5.90;;;4.85;;
38715;SDS011;24833;49.324;8.694;2023-04-16T01:04:55;5.50;;;4.68;;
38715;SDS011;24833;49.324;8.694;2023-04-16T01:07:22;5.80;;;4.78;;
38715;SDS011;24833;49.324;8.694;2023-04-16T01:09:49;4.95;;;4.00;;
38715;SDS011;24833;49.324;8.694;2023-04-16T01:12:16;6.07;;;4.38;;
38715;SDS011;24833;49.324;8.694;2023-04-16T01:14:43;5.93;;;4.85;;
38715;SDS011;24833;49.324;8.694;2023-04-16T01:17:10;6.05;;;4.40;;
38715;SDS011;24833;49.324;8.694;2023-04-16T01:19:37;6.32;;;4.28;;
38715;SDS011;24833;49.324;8.694;2023-04-16T01:22:04;4.50;;;4.03;;
38715;SDS011;24833;49.324;8.694;2023-04-16T01:24:34;6.03;;;4.32;;
38715;SDS011;24833;49.324;8.694;2023-04-16T01:27:01;6.65;;;4.82;;
38715;SDS011;24833;49.324;8.694;2023-04-16T01:29:28;6.18;;;4.35;;
38715;SDS011;24833;49.324;8.694;2023-04-16T01:31:57;5.22;;;4.40;;
38715;SDS011;24833;49.324;8.694;2023-04-16T01:34:28;4.93;;;4.40;;
38715;SDS011;24833;49.324;8.694;2023-04-16T01:36:55;5.45;;;4.65;;
38715;SDS011;24833;49.324;8.694;2023-04-16T01:39:22;6.40;;;4.72;;
38715;SDS011;24833;49.324;8.694;2023-04-16T01:41:49;5.40;;;4.88;;
38715;SDS011;24833;49.324;8.694;2023-04-16T01:44:16;6.82;;;4.78;;
38715;SDS011;24833;49.324;8.694;2023-04-16T01:46:43;5.28;;;4.63;;
38715;SDS011;24833;49.324;8.694;2023-04-16T01:49:10;5.68;;;5.00;;
38715;SDS011;24833;49.324;8.694;2023-04-16T01:51:37;5.22;;;4.45;;
38715;SDS011;24833;49.324;8.694;2023-04-16T01:54:04;8.55;;;5.10;;
38715;SDS011;24833;49.324;8.694;2023-04-16T01:56:31;7.90;;;5.93;;
38715;SDS011;24833;49.324;8.694;2023-04-16T01:58:58;10.20;;;5.35;;
38715;SDS011;24833;49.324;8.694;2023-04-16T02:01:31;6.68;;;5.30;;
38715;SDS011;24833;49.324;8.694;2023-04-16T02:03:58;6.28;;;5.47;;
38715;SDS011;24833;49.324;8.694;2023-04-16T02:06:25;7.43;;;6.30;;
38715;SDS011;24833;49.324;8.694;2023-04-16T02:08:52;10.65;;;6.82;;
38715;SDS011;24833;49.324;8.694;2023-04-16T02:11:19;6.60;;;5.85;;
38715;SDS011;24833;49.324;8.694;2023-04-16T02:13:48;7.53;;;5.90;;
38715;SDS011;24833;49.324;8.694;2023-04-16T02:16:16;8.27;;;6.07;;
38715;SDS011;24833;49.324;8.694;2023-04-16T02:18:48;7.88;;;6.15;;
38715;SDS011;24833;49.324;8.694;2023-04-16T02:21:17;8.43;;;6.70;;
38715;SDS011;24833;49.324;8.694;2023-04-16T02:23:45;8.88;;;7.05;;
38715;SDS011;24833;49.324;8.694;2023-04-16T02:26:20;7.93;;;6.63;;
38715;SDS011;24833;49.324;8.694;2023-04-16T02:28:48;7.35;;;6.50;;
38715;SDS011;24833;49.324;8.694;2023-04-16T02:31:16;8.15;;;6.85;;
38715;SDS011;24833;49.324;8.694;2023-04-16T02:33:46;8.40;;;7.05;;
38715;SDS011;24833;49.324;8.694;2023-04-16T02:36:13;7.93;;;7.05;;
38715;SDS011;24833;49.324;8.694;2023-04-16T02:38:40;9.95;;;7.90;;
38715;SDS011;24833;49.324;8.694;2023-04-16T02:41:07;8.90;;;6.95;;
38715;SDS011;24833;49.324;8.694;2023-04-16T02:43:34;9.82;;;7.30;;
38715;SDS011;24833;49.324;8.694;2023-04-16T02:46:02;7.68;;;6.93;;
38715;SDS011;24833;49.324;8.694;2023-04-16T02:48:30;8.60;;;6.88;;
38715;SDS011;24833;49.324;8.694;2023-04-16T02:50:57;8.70;;;7.13;;
38715;SDS011;24833;49.324;8.694;2023-04-16T02:53:24;10.40;;;8.05;;
38715;SDS011;24833;49.324;8.694;2023-04-16T02:55:51;9.63;;;7.55;;
38715;SDS011;24833;49.324;8.694;2023-04-16T02:58:21;8.43;;;7.53;;
38715;SDS011;24833;49.324;8.694;2023-04-16T03:00:51;10.35;;;7.82;;
38715;SDS011;24833;49.324;8.694;2023-04-16T03:03:19;9.00;;;7.97;;
38715;SDS011;24833;49.324;8.694;2023-04-16T03:05:47;9.02;;;7.70;;
38715;SDS011;24833;49.324;8.694;2023-04-16T03:08:15;8.27;;;7.40;;
38715;SDS011;24833;49.324;8.694;2023-04-16T03:10:42;10.40;;;8.55;;
38715;SDS011;24833;49.324;8.694;2023-04-16T03:13:09;8.93;;;7.72;;
38715;SDS011;24833;49.324;8.694;2023-04-16T03:15:36;9.15;;;7.88;;
38715;SDS011;24833;49.324;8.694;2023-04-16T03:18:03;8.55;;;7.65;;
38715;SDS011;24833;49.324;8.694;2023-04-16T03:20:30;9.95;;;7.57;;
38715;SDS011;24833;49.324;8.694;2023-04-16T03:22:57;9.50;;;7.80;;
38715;SDS011;24833;49.324;8.694;2023-04-16T03:25:24;11.23;;;8.18;;
38715;SDS011;24833;49.324;8.694;2023-04-16T03:27:51;10.30;;;7.43;;
38715;SDS011;24833;49.324;8.694;2023-04-16T03:30:18;9.93;;;8.23;;
38715;SDS011;24833;49.324;8.694;2023-04-16T03:32:45;10.02;;;8.70;;
38715;SDS011;24833;49.324;8.694;2023-04-16T03:35:12;9.48;;;8.10;;
38715;SDS011;24833;49.324;8.694;2023-04-16T03:37:40;10.07;;;7.88;;
38715;SDS011;24833;49.324;8.694;2023-04-16T03:40:07;10.75;;;8.23;;
38715;SDS011;24833;49.324;8.694;2023-04-16T03:42:34;10.68;;;8.70;;
38715;SDS011;24833;49.324;8.694;2023-04-16T03:45:01;11.50;;;8.90;;
38715;SDS011;24833;49.324;8.694;2023-04-16T03:47:30;10.85;;;8.38;;
38715;SDS011;24833;49.324;8.694;2023-04-16T03:50:00;11.15;;;8.52;;
38715;SDS011;24833;49.324;8.694;2023-04-16T03:52:27;9.10;;;7.93;;
38715;SDS011;24833;49.324;8.694;2023-04-16T03:54:55;10.50;;;8.30;;
38715;SDS011;24833;49.324;8.694;2023-04-16T03:57:25;10.70;;;8.80;;
38715;SDS011;24833;49.324;8.694;2023-04-16T04:02:25;10.68;;;8.65;;
38715;SDS011;24833;49.324;8.694;2023-04-16T04:04:52;12.48;;;9.45;;
38715;SDS011;24833;49.324;8.694;2023-04-16T04:07:19;10.80;;;9.68;;
38715;SDS011;24833;49.324;8.694;2023-04-16T04:09:46;11.77;;;9.38;;
38715;SDS011;24833;49.324;8.694;2023-04-16T04:12:14;13.85;;;9.40;;
38715;SDS011;24833;49.324;8.694;2023-04-16T04:14:42;9.82;;;8.32;;
38715;SDS011;24833;49.324;8.694;2023-04-16T04:17:09;13.35;;;9.82;;
38715;SDS011;24833;49.324;8.694;2023-04-16T04:19:36;13.18;;;9.80;;
38715;SDS011;24833;49.324;8.694;2023-04-16T04:22:12;12.88;;;9.93;;
38715;SDS011;24833;49.324;8.694;2023-04-16T04:24:39;11.88;;;9.43;;
38715;SDS011;24833;49.324;8.694;2023-04-16T04:27:06;11.82;;;9.75;;
38715;SDS011;24833;49.324;8.694;2023-04-16T04:29:33;12.02;;;9.15;;
38715;SDS011;24833;49.324;8.694;2023-04-16T04:32:00;10.35;;;8.77;;
38715;SDS011;24833;49.324;8.694;2023-04-16T04:34:27;10.20;;;9.15;;
38715;SDS011;24833;49.324;8.694;2023-04-16T04:36:57;11.43;;;9.30;;
38715;SDS011;24833;49.324;8.694;2023-04-16T04:39:26;14.02;;;10.38;;
38715;SDS011;24833;49.324;8.694;2023-04-16T04:41:53;12.02;;;9.55;;
38715;SDS011;24833;49.324;8.694;2023-04-16T04:44:20;11.90;;;9.98;;
38715;SDS011;24833;49.324;8.694;2023-04-16T04:46:47;11.60;;;10.40;;
38715;SDS011;24833;49.324;8.694;2023-04-16T04:49:14;12.80;;;10.38;;
38715;SDS011;24833;49.324;8.694;2023-04-16T04:51:41;12.35;;;10.07;;
38715;SDS011;24833;49.324;8.694;2023-04-16T04:54:08;12.48;;;9.95;;
38715;SDS011;24833;49.324;8.694;2023-04-16T04:56:35;11.40;;;9.38;;
38715;SDS011;24833;49.324;8.694;2023-04-16T04:59:02;12.40;;;9.68;;
38715;SDS011;24833;49.324;8.694;2023-04-16T05:01:29;11.65;;;8.95;;
38715;SDS011;24833;49.324;8.694;2023-04-16T05:03:56;10.50;;;9.27;;
38715;SDS011;24833;49.324;8.694;2023-04-16T05:06:23;12.00;;;10.38;;
38715;SDS011;24833;49.324;8.694;2023-04-16T05:08:52;10.38;;;9.27;;
38715;SDS011;24833;49.324;8.694;2023-04-16T05:11:19;11.02;;;8.90;;
38715;SDS011;24833;49.324;8.694;2023-04-16T05:13:46;9.52;;;8.20;;
38715;SDS011;24833;49.324;8.694;2023-04-16T05:16:13;12.32;;;9.70;;
38715;SDS011;24833;49.324;8.694;2023-04-16T05:18:41;10.77;;;8.75;;
38715;SDS011;24833;49.324;8.694;2023-04-16T05:21:07;13.13;;;9.75;;
38715;SDS011;24833;49.324;8.694;2023-04-16T05:23:34;12.18;;;9.40;;
38715;SDS011;24833;49.324;8.694;2023-04-16T05:26:01;12.38;;;9.05;;
38715;SDS011;24833;49.324;8.694;2023-04-16T05:28:29;13.50;;;10.82;;
38715;SDS011;24833;49.324;8.694;2023-04-16T05:30:56;11.48;;;9.13;;
38715;SDS011;24833;49.324;8.694;2023-04-16T05:33:23;13.05;;;9.50;;
38715;SDS011;24833;49.324;8.694;2023-04-16T05:35:50;13.77;;;10.65;;
38715;SDS011;24833;49.324;8.694;2023-04-16T05:38:17;12.45;;;9.25;;
38715;SDS011;24833;49.324;8.694;2023-04-16T05:40:44;11.75;;;10.02;;
38715;SDS011;24833;49.324;8.694;2023-04-16T05:43:11;11.63;;;9.10;;
38715;SDS011;24833;49.324;8.694;2023-04-16T05:45:38;12.43;;;9.23;;
38715;SDS011;24833;49.324;8.694;2023-04-16T05:48:06;11.32;;;9.32;;
38715;SDS011;24833;49.324;8.694;2023-04-16T05:50:37;12.63;;;9.05;;
38715;SDS011;24833;49.324;8.694;2023-04-16T05:53:04;11.52;;;8.60;;
38715;SDS011;24833;49.324;8.694;2023-04-16T05:55:33;14.10;;;9.77;;
38715;SDS011;24833;49.324;8.694;2023-04-16T05:58:02;11.27;;;8.95;;
38715;SDS011;24833;49.324;8.694;2023-04-16T06:00:31;10.88;;;8.65;;
38715;SDS011;24833;49.324;8.694;2023-04-16T06:02:58;12.95;;;8.88;;
38715;SDS011;24833;49.324;8.694;2023-04-16T06:05:28;10.52;;;8.18;;
38715;SDS011;24833;49.324;8.694;2023-04-16T06:07:56;11.57;;;9.18;;
38715;SDS011;24833;49.324;8.694;2023-04-16T06:10:23;11.73;;;8.23;;
38715;SDS011;24833;49.324;8.694;2023-04-16T06:12:50;10.98;;;8.15;;
38715;SDS011;24833;49.324;8.694;2023-04-16T06:15:17;9.25;;;7.80;;
38715;SDS011;24833;49.324;8.694;2023-04-16T06:17:44;10.07;;;8.38;;
38715;SDS011;24833;49.324;8.694;2023-04-16T06:20:11;10.48;;;8.82;;
38715;SDS011;24833;49.324;8.694;2023-04-16T06:22:38;10.20;;;7.95;;
38715;SDS011;24833;49.324;8.694;2023-04-16T06:25:05;10.00;;;8.15;;
38715;SDS011;24833;49.324;8.694;2023-04-16T06:27:33;11.38;;;8.43;;
38715;SDS011;24833;49.324;8.694;2023-04-16T06:30:00;11.40;;;8.63;;
38715;SDS011;24833;49.324;8.694;2023-04-16T06:32:27;11.57;;;8.45;;
38715;SDS011;24833;49.324;8.694;2023-04-16T06:34:54;10.30;;;8.05;;
38715;SDS011;24833;49.324;8.694;2023-04-16T06:37:21;9.38;;;7.80;;
38715;SDS011;24833;49.324;8.694;2023-04-16T06:39:48;8.95;;;7.82;;
38715;SDS011;24833;49.324;8.694;2023-04-16T06:42:15;10.88;;;7.88;;
38715;SDS011;24833;49.324;8.694;2023-04-16T06:44:42;9.65;;;7.78;;
38715;SDS011;24833;49.324;8.694;2023-04-16T06:47:09;9.80;;;7.53;;
38715;SDS011;24833;49.324;8.694;2023-04-16T06:49:37;9.48;;;7.97;;
38715;SDS011;24833;49.324;8.694;2023-04-16T06:52:05;8.93;;;7.32;;
38715;SDS011;24833;49.324;8.694;2023-04-16T06:54:32;8.60;;;6.93;;
38715;SDS011;24833;49.324;8.694;2023-04-16T06:56:59;10.27;;;8.23;;
38715;SDS011;24833;49.324;8.694;2023-04-16T06:59:26;10.10;;;7.88;;
38715;SDS011;24833;49.324;8.694;2023-04-16T07:01:53;11.48;;;7.65;;
38715;SDS011;24833;49.324;8.694;2023-04-16T07:04:20;11.48;;;7.95;;
38715;SDS011;24833;49.324;8.694;2023-04-16T07:06:47;9.23;;;7.35;;
38715;SDS011;24833;49.324;8.694;2023-04-16T07:09:14;9.68;;;7.60;;
38715;SDS011;24833;49.324;8.694;2023-04-16T07:11:43;11.93;;;7.63;;
38715;SDS011;24833;49.324;8.694;2023-04-16T07:14:10;9.95;;;8.43;;
38715;SDS011;24833;49.324;8.694;2023-04-16T07:16:37;8.93;;;7.47;;
38715;SDS011;24833;49.324;8.694;2023-04-16T07:19:04;9.93;;;7.57;;
38715;SDS011;24833;49.324;8.694;2023-04-16T07:21:31;9.88;;;7.93;;
38715;SDS011;24833;49.324;8.694;2023-04-16T07:23:58;10.68;;;7.43;;
38715;SDS011;24833;49.324;8.694;2023-04-16T07:26:26;10.68;;;7.57;;
38715;SDS011;24833;49.324;8.694;2023-04-16T07:28:53;10.85;;;7.63;;
38715;SDS011;24833;49.324;8.694;2023-04-16T07:31:19;11.60;;;7.85;;
38715;SDS011;24833;49.324;8.694;2023-04-16T07:33:47;10.77;;;8.02;;
38715;SDS011;24833;49.324;8.694;2023-04-16T07:36:14;11.73;;;8.80;;
38715;SDS011;24833;49.324;8.694;2023-04-16T07:38:41;12.07;;;8.90;;
38715;SDS011;24833;49.324;8.694;2023-04-16T07:41:07;13.00;;;9.30;;
38715;SDS011;24833;49.324;8.694;2023-04-16T07:43:35;11.70;;;8.68;;
38715;SDS011;24833;49.324;8.694;2023-04-16T07:46:02;13.63;;;9.48;;
38715;SDS011;24833;49.324;8.694;2023-04-16T07:48:29;16.45;;;10.60;;
38715;SDS011;24833;49.324;8.694;2023-04-16T07:50:56;14.13;;;11.77;;
38715;SDS011;24833;49.324;8.694;2023-04-16T07:53:23;14.98;;;10.45;;
38715;SDS011;24833;49.324;8.694;2023-04-16T07:55:50;13.23;;;10.77;;
38715;SDS011;24833;49.324;8.694;2023-04-16T07:58:17;16.23;;;10.88;;
38715;SDS011;24833;49.324;8.694;2023-04-16T08:00:44;13.98;;;9.73;;
38715;SDS011;24833;49.324;8.694;2023-04-16T08:03:11;14.30;;;11.38;;
38715;SDS011;24833;49.324;8.694;2023-04-16T08:05:38;14.27;;;10.50;;
38715;SDS011;24833;49.324;8.694;2023-04-16T08:08:05;16.70;;;10.95;;
38715;SDS011;24833;49.324;8.694;2023-04-16T08:10:32;16.70;;;10.90;;
38715;SDS011;24833;49.324;8.694;2023-04-16T08:13:00;14.93;;;10.65;;
38715;SDS011;24833;49.324;8.694;2023-04-16T08:15:27;13.80;;;10.63;;
38715;SDS011;24833;49.324;8.694;2023-04-16T08:17:54;13.88;;;10.48;;
38715;SDS011;24833;49.324;8.694;2023-04-16T08:20:21;14.18;;;10.73;;
38715;SDS011;24833;49.324;8.694;2023-04-16T08:22:48;14.18;;;10.50;;
38715;SDS011;24833;49.324;8.694;2023-04-16T08:25:15;13.25;;;10.25;;
38715;SDS011;24833;49.324;8.694;2023-04-16T08:27:45;17.47;;;11.23;;
38715;SDS011;24833;49.324;8.694;2023-04-16T08:30:12;16.98;;;11.40;;
38715;SDS011;24833;49.324;8.694;2023-04-16T08:32:42;14.40;;;10.45;;
38715;SDS011;24833;49.324;8.694;2023-04-16T08:35:09;16.13;;;11.00;;
38715;SDS011;24833;49.324;8.694;2023-04-16T08:37:36;12.40;;;9.38;;
38715;SDS011;24833;49.324;8.694;2023-04-16T08:40:04;12.73;;;9.65;;
38715;SDS011;24833;49.324;8.694;2023-04-16T08:42:33;17.45;;;11.25;;
38715;SDS011;24833;49.324;8.694;2023-04-16T08:45:06;12.25;;;9.40;;
38715;SDS011;24833;49.324;8.694;2023-04-16T08:47:46;12.07;;;8.77;;
38715;SDS011;24833;49.324;8.694;2023-04-16T08:50:18;12.55;;;8.93;;
38715;SDS011;24833;49.324;8.694;2023-04-16T08:52:51;12.82;;;9.20;;
38715;SDS011;24833;49.324;8.694;2023-04-16T08:55:25;12.65;;;9.25;;
38715;SDS011;24833;49.324;8.694;2023-04-16T08:58:18;12.30;;;9.23;;
38715;SDS011;24833;49.324;8.694;2023-04-16T09:00:48;11.88;;;9.30;;
38715;SDS011;24833;49.324;8.694;2023-04-16T09:03:15;15.43;;;9.43;;
38715;SDS011;24833;49.324;8.694;2023-04-16T09:05:45;14.73;;;9.90;;
38715;SDS011;24833;49.324;8.694;2023-04-16T09:08:13;12.35;;;9.10;;
38715;SDS011;24833;49.324;8.694;2023-04-16T09:10:40;12.50;;;8.95;;
38715;SDS011;24833;49.324;8.694;2023-04-16T09:13:09;12.88;;;8.57;;
38715;SDS011;24833;49.324;8.694;2023-04-16T09:15:36;15.30;;;10.00;;
38715;SDS011;24833;49.324;8.694;2023-04-16T09:18:04;10.85;;;8.77;;
38715;SDS011;24833;49.324;8.694;2023-04-16T09:20:32;12.77;;;8.90;;
38715;SDS011;24833;49.324;8.694;2023-04-16T09:22:58;11.57;;;8.27;;
38715;SDS011;24833;49.324;8.694;2023-04-16T09:25:25;10.15;;;7.40;;
38715;SDS011;24833;49.324;8.694;2023-04-16T09:27:53;11.40;;;7.82;;
38715;SDS011;24833;49.324;8.694;2023-04-16T09:30:21;12.02;;;7.63;;
38715;SDS011;24833;49.324;8.694;2023-04-16T09:35:49;12.10;;;8.05;;
38715;SDS011;24833;49.324;8.694;2023-04-16T09:38:19;10.50;;;7.47;;
38715;SDS011;24833;49.324;8.694;2023-04-16T09:40:46;11.63;;;8.00;;
38715;SDS011;24833;49.324;8.694;2023-04-16T09:43:14;12.18;;;8.18;;
38715;SDS011;24833;49.324;8.694;2023-04-16T09:45:53;11.40;;;7.40;;
38715;SDS011;24833;49.324;8.694;2023-04-16T09:48:31;9.95;;;7.75;;
38715;SDS011;24833;49.324;8.694;2023-04-16T09:50:59;9.30;;;7.57;;
38715;SDS011;24833;49.324;8.694;2023-04-16T09:53:27;9.70;;;7.00;;
38715;SDS011;24833;49.324;8.694;2023-04-16T09:56:00;9.43;;;7.43;;
38715;SDS011;24833;49.324;8.694;2023-04-16T09:58:30;10.52;;;7.68;;
38715;SDS011;24833;49.324;8.694;2023-04-16T10:01:01;9.57;;;7.10;;
38715;SDS011;24833;49.324;8.694;2023-04-16T10:03:34;8.90;;;6.80;;
38715;SDS011;24833;49.324;8.694;2023-04-16T10:06:17;9.35;;;6.80;;
38715;SDS011;24833;49.324;8.694;2023-04-16T10:08:47;12.30;;;7.60;;
38715;SDS011;24833;49.324;8.694;2023-04-16T10:11:18;9.07;;;6.80;;
38715;SDS011;24833;49.324;8.694;2023-04-16T10:13:46;11.82;;;6.97;;
38715;SDS011;24833;49.324;8.694;2023-04-16T10:16:14;8.68;;;7.13;;
38715;SDS011;24833;49.324;8.694;2023-04-16T10:18:44;8.40;;;6.55;;
38715;SDS011;24833;49.324;8.694;2023-04-16T10:21:12;11.13;;;7.28;;
38715;SDS011;24833;49.324;8.694;2023-04-16T10:23:41;10.27;;;6.95;;
38715;SDS011;24833;49.324;8.694;2023-04-16T10:26:09;10.82;;;6.68;;
38715;SDS011;24833;49.324;8.694;2023-04-16T10:28:36;9.70;;;6.80;;
38715;SDS011;24833;49.324;8.694;2023-04-16T10:31:04;7.85;;;6.72;;
38715;SDS011;24833;49.324;8.694;2023-04-16T10:33:34;8.57;;;6.63;;
38715;SDS011;24833;49.324;8.694;2023-04-16T10:36:06;8.20;;;6.53;;
38715;SDS011;24833;49.324;8.694;2023-04-16T10:38:38;8.52;;;6.60;;
38715;SDS011;24833;49.324;8.694;2023-04-16T10:41:10;8.15;;;6.50;;
38715;SDS011;24833;49.324;8.694;2023-04-16T10:43:47;11.02;;;7.43;;
38715;SDS011;24833;49.324;8.694;2023-04-16T10:48:59;11.23;;;7.40;;
38715;SDS011;24833;49.324;8.694;2023-04-16T10:51:28;8.80;;;7.30;;
38715;SDS011;24833;49.324;8.694;2023-04-16T10:54:17;11.52;;;7.55;;
38715;SDS011;24833;49.324;8.694;2023-04-16T10:56:48;10.95;;;7.18;;
38715;SDS011;24833;49.324;8.694;2023-04-16T10:59:17;10.00;;;7.07;;
38715;SDS011;24833;49.324;8.694;2023-04-16T11:01:52;9.90;;;7.10;;
38715;SDS011;24833;49.324;8.694;2023-04-16T11:04:25;11.00;;;7.55;;
38715;SDS011;24833;49.324;8.694;2023-04-16T11:09:56;10.68;;;7.47;;
38715;SDS011;24833;49.324;8.694;2023-04-16T11:12:26;11.40;;;7.68;;
38715;SDS011;24833;49.324;8.694;2023-04-16T11:22:52;10.93;;;8.15;;
38715;SDS011;24833;49.324;8.694;2023-04-16T11:25:22;11.07;;;7.87;;
38715;SDS011;24833;49.324;8.694;2023-04-16T11:27:51;11.07;;;7.97;;
38715;SDS011;24833;49.324;8.694;2023-04-16T11:30:29;12.52;;;7.93;;
38715;SDS011;24833;49.324;8.694;2023-04-16T11:33:02;9.95;;;8.25;;
38715;SDS011;24833;49.324;8.694;2023-04-16T11:35:38;9.88;;;7.47;;
38715;SDS011;24833;49.324;8.694;2023-04-16T11:38:06;13.07;;;8.52;;
38715;SDS011;24833;49.324;8.694;2023-04-16T11:40:33;9.80;;;7.80;;
38715;SDS011;24833;49.324;8.694;2023-04-16T11:43:03;12.68;;;9.38;;
38715;SDS011;24833;49.324;8.694;2023-04-16T11:45:44;13.20;;;9.20;;
38715;SDS011;24833;49.324;8.694;2023-04-16T11:48:23;10.07;;;8.10;;
38715;SDS011;24833;49.324;8.694;2023-04-16T11:50:56;13.93;;;9.38;;
38715;SDS011;24833;49.324;8.694;2023-04-16T11:53:24;11.38;;;8.40;;
38715;SDS011;24833;49.324;8.694;2023-04-16T11:55:51;12.43;;;8.50;;
38715;SDS011;24833;49.324;8.694;2023-04-16T11:58:18;12.25;;;8.80;;
38715;SDS011;24833;49.324;8.694;2023-04-16T12:00:48;14.10;;;9.65;;
38715;SDS011;24833;49.324;8.694;2023-04-16T12:03:18;12.40;;;9.07;;
38715;SDS011;24833;49.324;8.694;2023-04-16T12:06:11;12.00;;;8.50;;
38715;SDS011;24833;49.324;8.694;2023-04-16T12:08:38;11.15;;;8.52;;
38715;SDS011;24833;49.324;8.694;2023-04-16T12:11:05;9.77;;;8.02;;
38715;SDS011;24833;49.324;8.694;2023-04-16T12:13:32;10.73;;;8.18;;
38715;SDS011;24833;49.324;8.694;2023-04-16T12:16:15;11.77;;;9.00;;
38715;SDS011;24833;49.324;8.694;2023-04-16T12:18:58;10.40;;;8.45;;
38715;SDS011;24833;49.324;8.694;2023-04-16T12:22:02;10.13;;;8.35;;
38715;SDS011;24833;49.324;8.694;2023-04-16T12:24:26;10.70;;;8.40;;
38715;SDS011;24833;49.324;8.694;2023-04-16T12:26:57;11.80;;;8.55;;
38715;SDS011;24833;49.324;8.694;2023-04-16T12:29:28;13.50;;;8.88;;
38715;SDS011;24833;49.324;8.694;2023-04-16T12:31:55;13.60;;;9.73;;
38715;SDS011;24833;49.324;8.694;2023-04-16T12:34:22;12.02;;;9.00;;
38715;SDS011;24833;49.324;8.694;2023-04-16T12:37:09;12.98;;;9.52;;
38715;SDS011;24833;49.324;8.694;2023-04-16T12:39:36;15.27;;;9.30;;
38715;SDS011;24833;49.324;8.694;2023-04-16T12:42:03;11.38;;;8.65;;
38715;SDS011;24833;49.324;8.694;2023-04-16T12:44:31;14.30;;;9.73;;
38715;SDS011;24833;49.324;8.694;2023-04-16T12:46:58;12.20;;;9.25;;
38715;SDS011;24833;49.324;8.694;2023-04-16T12:49:25;12.93;;;9.60;;
38715;SDS011;24833;49.324;8.694;2023-04-16T12:51:52;12.57;;;9.18;;
38715;SDS011;24833;49.324;8.694;2023-04-16T12:54:19;13.55;;;9.75;;
38715;SDS011;24833;49.324;8.694;2023-04-16T12:56:46;15.60;;;9.55;;
38715;SDS011;24833;49.324;8.694;2023-04-16T12:59:13;14.95;;;9.90;;
38715;SDS011;24833;49.324;8.694;2023-04-16T13:01:40;12.23;;;9.20;;
38715;SDS011;24833;49.324;8.694;2023-04-16T13:04:07;15.20;;;9.75;;
38715;SDS011;24833;49.324;8.694;2023-04-16T13:06:34;13.07;;;9.57;;
38715;SDS011;24833;49.324;8.694;2023-04-16T13:09:03;12.98;;;9.05;;
38715;SDS011;24833;49.324;8.694;2023-04-16T13:11:30;14.88;;;9.98;;
38715;SDS011;24833;49.324;8.694;2023-04-16T13:13:58;12.65;;;9.50;;
38715;SDS011;24833;49.324;8.694;2023-04-16T13:16:24;13.98;;;10.15;;
38715;SDS011;24833;49.324;8.694;2023-04-16T13:18:51;13.60;;;10.10;;
38715;SDS011;24833;49.324;8.694;2023-04-16T13:21:19;13.00;;;9.43;;
38715;SDS011;24833;49.324;8.694;2023-04-16T13:23:45;11.38;;;9.10;;
38715;SDS011;24833;49.324;8.694;2023-04-16T13:26:15;11.90;;;8.75;;
38715;SDS011;24833;49.324;8.694;2023-04-16T13:28:42;12.38;;;9.20;;
38715;SDS011;24833;49.324;8.694;2023-04-16T13:31:09;11.32;;;8.90;;
38715;SDS011;24833;49.324;8.694;2023-04-16T13:33:36;11.45;;;8.15;;
38715;SDS011;24833;49.324;8.694;2023-04-16T13:36:03;13.60;;;8.93;;
38715;SDS011;24833;49.324;8.694;2023-04-16T13:38:31;11.95;;;8.30;;
38715;SDS011;24833;49.324;8.694;2023-04-16T13:40:58;10.40;;;8.50;;
38715;SDS011;24833;49.324;8.694;2023-04-16T13:43:25;11.02;;;8.07;;
38715;SDS011;24833;49.324;8.694;2023-04-16T13:45:52;9.27;;;7.78;;
38715;SDS011;24833;49.324;8.694;2023-04-16T13:48:19;10.70;;;8.35;;
38715;SDS011;24833;49.324;8.694;2023-04-16T13:50:46;14.25;;;9.32;;
38715;SDS011;24833;49.324;8.694;2023-04-16T13:53:13;11.77;;;8.35;;
38715;SDS011;24833;49.324;8.694;2023-04-16T13:55:40;10.70;;;8.45;;
38715;SDS011;24833;49.324;8.694;2023-04-16T13:58:08;10.75;;;8.05;;
38715;SDS011;24833;49.324;8.694;2023-04-16T14:00:36;9.80;;;8.18;;
38715;SDS011;24833;49.324;8.694;2023-04-16T14:03:03;11.20;;;8.02;;
38715;SDS011;24833;49.324;8.694;2023-04-16T14:05:32;11.15;;;8.52;;
38715;SDS011;24833;49.324;8.694;2023-04-16T14:07:59;12.93;;;8.63;;
38715;SDS011;24833;49.324;8.694;2023-04-16T14:10:26;11.32;;;9.25;;
38715;SDS011;24833;49.324;8.694;2023-04-16T14:12:53;12.18;;;8.45;;
38715;SDS011;24833;49.324;8.694;2023-04-16T14:15:20;12.25;;;8.90;;
38715;SDS011;24833;49.324;8.694;2023-04-16T14:17:47;11.02;;;8.60;;
38715;SDS011;24833;49.324;8.694;2023-04-16T14:20:14;11.10;;;7.75;;
38715;SDS011;24833;49.324;8.694;2023-04-16T14:22:41;10.70;;;8.25;;
38715;SDS011;24833;49.324;8.694;2023-04-16T14:25:09;10.15;;;8.32;;
38715;SDS011;24833;49.324;8.694;2023-04-16T14:27:36;12.85;;;8.95;;
38715;SDS011;24833;49.324;8.694;2023-04-16T14:30:04;12.73;;;8.85;;
38715;SDS011;24833;49.324;8.694;2023-04-16T14:32:32;11.90;;;8.98;;
38715;SDS011;24833;49.324;8.694;2023-04-16T14:34:59;12.35;;;9.50;;
38715;SDS011;24833;49.324;8.694;2023-04-16T14:37:26;13.40;;;9.85;;
38715;SDS011;24833;49.324;8.694;2023-04-16T14:39:53;13.10;;;9.82;;
38715;SDS011;24833;49.324;8.694;2023-04-16T14:42:20;13.85;;;9.35;;
38715;SDS011;24833;49.324;8.694;2023-04-16T14:44:47;12.88;;;9.23;;
38715;SDS011;24833;49.324;8.694;2023-04-16T14:47:14;12.27;;;10.02;;
38715;SDS011;24833;49.324;8.694;2023-04-16T14:49:41;15.07;;;10.02;;
38715;SDS011;24833;49.324;8.694;2023-04-16T14:52:08;14.02;;;9.77;;
38715;SDS011;24833;49.324;8.694;2023-04-16T14:54:35;13.00;;;9.30;;
38715;SDS011;24833;49.324;8.694;2023-04-16T14:57:02;15.20;;;10.75;;
38715;SDS011;24833;49.324;8.694;2023-04-16T14:59:29;14.70;;;10.35;;
38715;SDS011;24833;49.324;8.694;2023-04-16T15:01:57;15.48;;;10.40;;
38715;SDS011;24833;49.324;8.694;2023-04-16T15:04:24;14.75;;;10.90;;